Terminal Aerodrome Forecast
Issued by NWS Albany, NY

Home | Current Version | Previous Version | Text Only | Print | Product List | Glossary On
Versions: 1 2 3 4 5 6 7 8 9 10 11 12 13 14 15 16 17 18
196
FTUS41 KALY 270540
TAFGFL
TAF
KGFL 270540Z 2706/2806 00000KT P6SM OVC025
      TEMPO 2709/2712 4SM BR BKN008
     FM271500 VRB03KT P6SM BKN025
     FM271900 16007KT P6SM SCT025 BKN040
     FM272200 17010KT P6SM SCT040 SCT250
     FM280200 18005KT P6SM BKN015 OVC030=

USA.gov is the U.S. government's official web portal to all federal, state and local government web resources and services.